Time;durP1;ratioP1;P1;durP2;ratioP2;P2;SDS_P1;SDS_P2;PMS_P1;PMS_P2;Temp;Humidity;BMP_temperature;BMP_pressure;BME280_temperature;BME280_humidity;BME280_pressure;Samples;Min_cycle;Max_cycle;Signal;HPM_P1;HPM_P2
2023/12/08 00:34:30;;;;;;;4.10;1.80;;;5.60;99.90;;;;;;5080368;23;20262;-95
2023/12/08 00:37:35;;;;;;;;;;;;;;;;;;;;;
2023/12/08 00:40:43;;;;;;;;;;;;;;;;;;;;;
2023/12/08 00:42:51;;;;;;;1.93;1.00;;;5.70;99.90;;;;;;5051679;23;20155;-95
2023/12/08 00:44:54;;;;;;;7.67;1.37;;;5.90;99.90;;;;;;5005029;23;20239;-95
2023/12/08 00:49:52;;;;;;;1.83;1.00;;;5.80;99.90;;;;;;5023397;23;20186;-95
2023/12/08 00:51:53;;;;;;;1.27;0.90;;;5.90;99.90;;;;;;4998431;23;20160;-95
2023/12/08 00:53:54;;;;;;;2.03;1.30;;;5.80;99.90;;;;;;5024638;23;20146;-95
2023/12/08 00:55:55;;;;;;;1.13;0.90;;;5.70;99.90;;;;;;5023578;23;20153;-95
2023/12/08 00:58:05;;;;;;;3.10;1.47;;;5.60;99.90;;;;;;5001797;23;20165;-94
2023/12/08 01:00:22;;;;;;;2.83;1.50;;;5.80;99.90;;;;;;5001610;23;20160;-95
2023/12/08 01:02:28;;;;;;;2.80;1.10;;;5.70;99.90;;;;;;5000298;23;20475;-94
2023/12/08 01:04:34;;;;;;;5.13;1.80;;;5.70;99.90;;;;;;5024341;23;20178;-95
2023/12/08 01:06:38;;;;;;;3.07;1.60;;;5.70;99.90;;;;;;4999072;23;20224;-94
2023/12/08 01:08:41;;;;;;;5.67;1.50;;;5.80;99.90;;;;;;4999618;23;20186;-93
2023/12/08 01:10:49;;;;;;;3.30;1.23;;;5.70;99.90;;;;;;5000419;23;20607;-94
2023/12/08 01:12:50;;;;;;;2.40;1.17;;;5.80;99.90;;;;;;4999014;23;20156;-94
2023/12/08 01:14:51;;;;;;;5.80;1.47;;;6.00;99.90;;;;;;5023143;23;20171;-93
2023/12/08 01:16:52;;;;;;;3.00;1.40;;;6.00;99.90;;;;;;4999098;23;20160;-96
2023/12/08 01:18:53;;;;;;;2.27;0.90;;;6.00;99.90;;;;;;4999372;23;20182;-96
2023/12/08 01:20:57;;;;;;;4.10;1.37;;;5.80;99.90;;;;;;5023267;23;20242;-96
2023/12/08 01:23:01;;;;;;;2.83;1.37;;;5.80;99.90;;;;;;4998750;23;20151;-94
2023/12/08 01:25:04;;;;;;;2.17;0.97;;;6.20;99.90;;;;;;5047964;23;20178;-95
2023/12/08 01:27:08;;;;;;;2.43;1.10;;;6.20;99.90;;;;;;4999158;23;20148;-94
2023/12/08 01:29:10;;;;;;;3.67;1.50;;;6.30;99.90;;;;;;4998720;23;20158;-93
2023/12/08 01:31:13;;;;;;;3.30;1.47;;;6.30;99.90;;;;;;4999568;23;20230;-96
2023/12/08 01:33:22;;;;;;;4.77;1.50;;;6.30;99.90;;;;;;5024310;23;20238;-96
2023/12/08 01:35:23;;;;;;;3.13;1.60;;;5.90;99.90;;;;;;4979071;23;20280;-95
2023/12/08 01:37:24;;;;;;;2.37;1.47;;;5.90;99.90;;;;;;5025695;23;20155;-96
2023/12/08 01:39:32;;;;;;;6.70;1.40;;;5.80;99.90;;;;;;4955271;24;20165;-96
2023/12/08 01:41:37;;;;;;;3.60;1.80;;;5.90;99.90;;;;;;5024113;23;20509;-96
2023/12/08 01:43:45;;;;;;;4.33;2.03;;;5.90;99.90;;;;;;4956087;23;20157;-96
2023/12/08 01:45:49;;;;;;;2.00;1.37;;;5.90;99.90;;;;;;5025074;23;20158;-95
2023/12/08 01:47:52;;;;;;;3.83;1.77;;;5.80;99.90;;;;;;4978314;23;20179;-96
2023/12/08 01:49:56;;;;;;;2.97;1.27;;;5.60;99.90;;;;;;5024988;23;20189;-96
2023/12/08 01:51:57;;;;;;;5.03;1.73;;;5.50;99.90;;;;;;5001756;23;20151;-96
2023/12/08 01:54:01;;;;;;;2.87;1.73;;;5.80;99.90;;;;;;5001223;23;20163;-95
2023/12/08 01:56:02;;;;;;;4.50;1.43;;;5.90;99.90;;;;;;4978711;23;20227;-94
2023/12/08 01:58:13;;;;;;;3.93;1.50;;;5.90;99.90;;;;;;5002074;23;20194;-96
2023/12/08 02:00:17;;;;;;;5.30;1.70;;;6.00;99.90;;;;;;4977720;23;20185;-95
2023/12/08 02:02:20;;;;;;;2.97;1.57;;;5.90;99.90;;;;;;4999600;23;20171;-96
2023/12/08 02:04:36;;;;;;;5.70;1.77;;;6.00;99.90;;;;;;4979912;23;20251;-95
2023/12/08 02:06:45;;;;;;;3.43;1.67;;;5.90;99.90;;;;;;4978840;23;20160;-96
2023/12/08 02:08:56;;;;;;;2.80;1.47;;;5.80;99.90;;;;;;4975174;23;20444;-94
2023/12/08 02:11:05;;;;;;;4.90;1.97;;;5.80;99.90;;;;;;5000874;23;20195;-96
2023/12/08 02:13:07;;;;;;;3.57;1.57;;;5.90;99.90;;;;;;4953998;23;20161;-95
2023/12/08 02:15:12;;;;;;;3.07;1.90;;;5.70;99.90;;;;;;4999979;23;20593;-96
2023/12/08 02:17:24;;;;;;;3.30;1.60;;;5.80;99.90;;;;;;4993669;23;20232;-96
2023/12/08 02:19:32;;;;;;;3.77;1.57;;;6.00;99.90;;;;;;4980008;23;20548;-96
2023/12/08 02:21:35;;;;;;;3.13;1.80;;;5.90;99.90;;;;;;5000916;23;20155;-96
2023/12/08 02:23:36;;;;;;;2.53;1.50;;;5.90;99.90;;;;;;4979147;23;20157;-94
2023/12/08 02:25:37;;;;;;;3.90;1.37;;;6.10;99.90;;;;;;4978309;23;20242;-96
2023/12/08 02:27:41;;;;;;;2.20;1.37;;;6.00;99.90;;;;;;4975524;23;20153;-96
2023/12/08 02:29:44;;;;;;;5.60;2.07;;;5.90;99.90;;;;;;4979386;23;20538;-93
2023/12/08 02:32:00;;;;;;;4.97;2.33;;;5.70;99.90;;;;;;4998502;23;20156;-95
2023/12/08 02:34:09;;;;;;;3.30;1.40;;;5.80;99.90;;;;;;4975413;23;20195;-94
2023/12/08 02:36:17;;;;;;;3.47;1.10;;;5.90;99.90;;;;;;4976970;23;20248;-96
2023/12/08 02:38:29;;;;;;;4.13;1.47;;;6.10;99.90;;;;;;4997894;23;20162;-96
2023/12/08 02:40:34;;;;;;;4.77;1.90;;;5.70;99.90;;;;;;4979295;23;20175;-95
2023/12/08 02:42:39;;;;;;;3.27;1.87;;;5.50;99.90;;;;;;5002264;23;20172;-96
2023/12/08 02:44:43;;;;;;;3.93;1.47;;;5.20;99.90;;;;;;4980062;23;20255;-96
2023/12/08 02:46:48;;;;;;;2.73;1.50;;;5.10;99.90;;;;;;4977483;23;20160;-96
2023/12/08 02:48:49;;;;;;;3.70;1.93;;;5.30;99.90;;;;;;4978385;23;20160;-93
2023/12/08 02:50:53;;;;;;;3.07;1.47;;;5.10;99.90;;;;;;4975405;23;20207;-96
2023/12/08 02:53:00;;;;;;;5.27;2.20;;;5.10;99.90;;;;;;4975405;23;20157;-96
2023/12/08 02:55:02;;;;;;;3.43;1.93;;;5.20;99.90;;;;;;4976464;23;20248;-93
2023/12/08 02:57:10;;;;;;;2.17;1.40;;;5.20;99.90;;;;;;4999949;23;20212;-96
2023/12/08 02:59:17;;;;;;;4.23;1.20;;;5.20;99.90;;;;;;4983361;23;20159;-96
2023/12/08 03:01:25;;;;;;;2.97;1.60;;;5.20;99.90;;;;;;4983692;23;20155;-96
2023/12/08 03:03:38;;;;;;;2.93;1.70;;;5.40;99.90;;;;;;4968350;23;20219;-96
2023/12/08 03:05:42;;;;;;;5.77;1.93;;;5.30;99.90;;;;;;4980498;23;20180;-96
2023/12/08 03:08:39;;;;;;;;;;;;;;;;;;;;;
2023/12/08 03:10:41;;;;;;;4.67;1.67;;;5.20;99.90;;;;;;5002669;23;20235;-95
2023/12/08 03:12:42;;;;;;;7.20;2.83;;;5.10;99.90;;;;;;4975641;23;20159;-93
2023/12/08 03:14:44;;;;;;;6.83;2.87;;;5.40;99.90;;;;;;4997441;23;20188;-95
2023/12/08 03:16:51;;;;;;;7.27;3.10;;;5.60;99.90;;;;;;5001336;23;20175;-96
2023/12/08 03:18:57;;;;;;;5.47;2.57;;;5.60;99.90;;;;;;5001729;23;20220;-96
2023/12/08 03:21:05;;;;;;;3.47;2.10;;;5.70;99.90;;;;;;5002682;23;20159;-96
2023/12/08 03:23:07;;;;;;;6.50;2.13;;;5.50;99.90;;;;;;4981845;23;20156;-95
2023/12/08 03:25:11;;;;;;;14.10;2.97;;;5.20;99.90;;;;;;4956143;23;20214;-96
2023/12/08 03:27:18;;;;;;;6.73;2.43;;;5.30;99.90;;;;;;4978875;23;20276;-96
2023/12/08 03:29:22;;;;;;;3.93;2.30;;;5.30;99.90;;;;;;4980926;23;20164;-95
2023/12/08 03:31:37;;;;;;;6.93;2.80;;;5.20;99.90;;;;;;4977792;23;20161;-95
2023/12/08 03:33:56;;;;;;;8.03;2.93;;;5.30;99.90;;;;;;4997346;23;20171;-95
2023/12/08 03:36:02;;;;;;;4.37;2.23;;;5.20;99.90;;;;;;5024161;23;20238;-96
2023/12/08 03:38:22;;;;;;;8.00;2.10;;;5.10;99.90;;;;;;5023937;23;20162;-96
2023/12/08 03:40:30;;;;;;;3.40;1.60;;;5.10;99.90;;;;;;5022927;23;20155;-94
2023/12/08 03:42:45;;;;;;;7.03;1.83;;;5.10;99.90;;;;;;4998854;23;20160;-94
2023/12/08 03:44:47;;;;;;;4.23;1.63;;;5.20;99.90;;;;;;4998872;23;20506;-96
2023/12/08 03:47:08;;;;;;;;;;;;;;;;;;;;;
2023/12/08 03:49:14;;;;;;;2.10;1.50;;;5.10;99.90;;;;;;4997972;23;20155;-95
2023/12/08 03:51:37;;;;;;;;;;;;;;;;;;;;;
2023/12/08 03:53:39;;;;;;;9.13;3.20;;;5.30;99.90;;;;;;5002608;23;20156;-95
2023/12/08 03:55:40;;;;;;;6.13;2.43;;;5.40;99.90;;;;;;5027953;23;20178;-95
2023/12/08 03:58:02;;;;;;;7.47;3.30;;;5.40;99.90;;;;;;5047893;23;20194;-94
2023/12/08 04:00:04;;;;;;;3.77;2.33;;;5.40;99.90;;;;;;5021535;23;20159;-93
2023/12/08 04:02:05;;;;;;;7.10;2.97;;;5.20;99.90;;;;;;5021288;23;20245;-94
2023/12/08 04:04:11;;;;;;;4.13;2.27;;;5.20;99.90;;;;;;4998423;23;20175;-94
2023/12/08 04:06:18;;;;;;;3.27;1.80;;;5.20;99.90;;;;;;5022118;23;20644;-94
2023/12/08 04:08:24;;;;;;;7.13;3.33;;;5.40;99.90;;;;;;4998905;23;20156;-93
2023/12/08 04:10:34;;;;;;;3.33;1.90;;;5.20;99.90;;;;;;4999682;23;20199;-96
2023/12/08 04:12:37;;;;;;;7.73;3.47;;;5.20;99.90;;;;;;5018126;23;20166;-93
2023/12/08 04:17:03;;;;;;;5.33;2.63;;;5.20;99.90;;;;;;5022723;23;20155;-94
2023/12/08 04:19:07;;;;;;;6.57;2.33;;;5.20;99.90;;;;;;4999688;23;20152;-93
2023/12/08 04:21:21;;;;;;;19.70;2.97;;;5.20;99.90;;;;;;5001698;23;20541;-93
2023/12/08 04:23:25;;;;;;;6.03;2.40;;;5.30;99.90;;;;;;4998863;23;20473;-93
2023/12/08 04:25:29;;;;;;;8.83;3.03;;;5.20;99.90;;;;;;5022643;23;20621;-94
2023/12/08 04:29:38;;;;;;;5.67;2.27;;;5.40;99.90;;;;;;5027007;23;20195;-94
2023/12/08 04:31:53;;;;;;;6.60;2.63;;;5.40;99.90;;;;;;4986446;23;20160;-96
2023/12/08 04:34:00;;;;;;;6.63;3.03;;;5.40;99.90;;;;;;4980830;23;20160;-95
2023/12/08 04:36:12;;;;;;;6.70;2.53;;;5.60;99.90;;;;;;4978852;23;20160;-94
2023/12/08 04:38:25;;;;;;;3.47;1.97;;;5.60;99.90;;;;;;4978336;23;20159;-95
2023/12/08 04:40:47;;;;;;;9.43;3.10;;;5.60;99.90;;;;;;4978434;23;20626;-95
2023/12/08 04:43:11;;;;;;;3.23;2.00;;;5.60;99.90;;;;;;4983175;23;20152;-94
2023/12/08 04:45:14;;;;;;;8.83;3.20;;;5.60;99.90;;;;;;4980977;23;20234;-94
2023/12/08 04:47:15;;;;;;;8.40;3.10;;;5.50;99.90;;;;;;5002279;23;20207;-93
2023/12/08 04:49:23;;;;;;;6.67;3.00;;;5.50;99.90;;;;;;5002477;23;20232;-96
2023/12/08 04:51:24;;;;;;;4.57;2.00;;;5.70;99.90;;;;;;4977498;23;20161;-95
2023/12/08 04:53:29;;;;;;;5.63;2.53;;;5.70;99.90;;;;;;4999962;23;20215;-95
2023/12/08 04:55:45;;;;;;;6.13;2.00;;;5.70;99.90;;;;;;5001537;23;20595;-94
2023/12/08 04:58:50;;;;;;;5.60;2.37;;;5.80;99.90;;;;;;5003244;23;20160;-96
2023/12/08 05:00:55;;;;;;;5.50;2.40;;;5.70;99.90;;;;;;4966375;23;20251;-95
2023/12/08 05:02:58;;;;;;;4.83;2.43;;;5.70;99.90;;;;;;4956814;23;20168;-95
2023/12/08 05:05:01;;;;;;;10.77;3.37;;;5.70;99.90;;;;;;5003428;23;20682;-95
2023/12/08 05:07:04;;;;;;;6.63;3.27;;;5.70;99.90;;;;;;5003798;23;20160;-95
2023/12/08 05:09:16;;;;;;;4.33;1.80;;;5.60;99.90;;;;;;5004962;23;20175;-94
2023/12/08 05:11:39;;;;;;;5.37;2.57;;;5.50;99.90;;;;;;5005692;23;20175;-95
2023/12/08 05:13:41;;;;;;;3.13;1.80;;;5.70;99.90;;;;;;4984792;23;20184;-95
2023/12/08 05:18:28;;;;;;;5.60;2.40;;;5.70;99.90;;;;;;5005686;23;20219;-93
2023/12/08 05:20:35;;;;;;;5.47;2.30;;;5.70;99.90;;;;;;4977936;23;20249;-94
2023/12/08 05:23:05;;;;;;;6.93;3.37;;;5.60;99.90;;;;;;4979436;23;20156;-95
2023/12/08 05:25:10;;;;;;;4.93;2.63;;;5.70;99.90;;;;;;4990791;23;20211;-94
2023/12/08 05:29:52;;;;;;;4.17;2.20;;;5.70;99.90;;;;;;5033047;23;20163;-94
2023/12/08 05:33:00;;;;;;;6.13;2.80;;;5.80;99.90;;;;;;4991656;23;20283;-94
2023/12/08 05:35:20;;;;;;;13.13;3.57;;;5.70;99.90;;;;;;5005254;23;20211;-94
2023/12/08 05:40:53;;;;;;;7.73;2.47;;;5.70;99.90;;;;;;4994825;23;20197;-95
2023/12/08 05:43:08;;;;;;;3.77;1.93;;;5.70;99.90;;;;;;4987202;23;20538;-95
2023/12/08 05:45:14;;;;;;;3.63;2.07;;;5.60;99.90;;;;;;4983336;23;20254;-94
2023/12/08 05:47:20;;;;;;;12.97;2.57;;;5.70;99.90;;;;;;4961991;23;20221;-94
2023/12/08 05:49:47;;;;;;;5.80;3.07;;;5.70;99.90;;;;;;4986654;23;20271;-93
2023/12/08 05:52:23;;;;;;;;;;;;;;;;;;;;;
2023/12/08 05:54:52;;;;;;;14.33;3.43;;;5.80;99.90;;;;;;4987353;23;20647;-94
2023/12/08 05:57:03;;;;;;;8.80;2.73;;;5.90;99.90;;;;;;4984201;23;20575;-95
2023/12/08 06:02:31;;;;;;;22.43;4.37;;;5.90;99.90;;;;;;4900855;24;20162;-95
2023/12/08 06:04:56;;;;;;;10.03;4.30;;;5.90;99.90;;;;;;4892379;24;20179;-95
2023/12/08 06:07:56;;;;;;;11.37;3.67;;;6.00;99.90;;;;;;4937005;24;20161;-95
2023/12/08 06:17:28;;;;;;;;;;;;;;;;;;;;;
2023/12/08 17:15:06;;;;;;;5.70;2.60;;;7.80;99.90;;;;;;5028310;23;20511;-94
2023/12/08 17:17:17;;;;;;;;;;;;;;;;;;;;;
2023/12/08 17:19:24;;;;;;;16.02;3.28;;;7.80;99.90;;;;;;5046372;23;20158;-96
2023/12/08 17:21:53;;;;;;;12.73;2.75;;;7.90;99.90;;;;;;5002215;23;20163;-96
2023/12/08 17:24:12;;;;;;;;;;;;;;;;;;;;;
2023/12/08 17:26:52;;;;;;;;;;;;;;;;;;;;;
2023/12/08 17:32:09;;;;;;;6.22;1.95;;;7.90;99.90;;;;;;5000309;23;20198;-95
2023/12/08 17:34:35;;;;;;;;;;;;;;;;;;;;;
2023/12/08 17:36:43;;;;;;;10.25;2.72;;;8.00;99.90;;;;;;5003774;23;20168;-96
2023/12/08 17:38:46;;;;;;;7.68;2.72;;;7.90;99.90;;;;;;5004582;23;20148;-95
2023/12/08 17:41:19;;;;;;;11.88;1.95;;;7.90;99.90;;;;;;5007475;23;20166;-95
2023/12/08 17:43:33;;;;;;;;;;;;;;;;;;;;;
2023/12/08 17:45:57;;;;;;;9.75;2.53;;;7.90;99.90;;;;;;5001325;23;20572;-96
2023/12/08 17:48:29;;;;;;;19.73;2.97;;;7.90;99.90;;;;;;4974515;23;20156;-96
2023/12/08 17:51:04;;;;;;;17.58;3.15;;;8.10;99.90;;;;;;4979190;23;20639;-94
2023/12/08 17:54:13;;;;;;;16.10;2.30;;;8.00;99.90;;;;;;5027524;23;20165;-96
2023/12/08 17:56:50;;;;;;;12.57;1.83;;;8.10;99.90;;;;;;5027587;23;20219;-96
2023/12/08 18:02:36;;;;;;;7.75;1.98;;;8.20;99.90;;;;;;5019566;23;20164;-96
2023/12/08 18:05:31;;;;;;;;;;;;;;;;;;;;;
2023/12/08 18:08:18;;;;;;;;;;;;;;;;;;;;;
2023/12/08 18:10:37;;;;;;;;;;;;;;;;;;;;;
2023/12/08 18:12:48;;;;;;;10.30;1.55;;;8.30;99.90;;;;;;5006483;23;20598;-96
2023/12/08 18:14:54;;;;;;;16.75;2.00;;;8.20;99.90;;;;;;5000585;23;20186;-95
2023/12/08 18:17:24;;;;;;;9.68;2.10;;;8.10;99.90;;;;;;4979953;23;20156;-94
2023/12/08 18:19:29;;;;;;;6.78;2.25;;;8.10;99.90;;;;;;4954173;23;20233;-96
2023/12/08 18:21:33;;;;;;;5.65;2.05;;;8.00;99.90;;;;;;4975829;23;20159;-94
2023/12/08 18:23:58;;;;;;;;;;;;;;;;;;;;;
2023/12/08 18:26:43;;;;;;;13.15;2.55;;;8.00;99.90;;;;;;5000272;23;20159;-95
2023/12/08 18:28:44;;;;;;;6.57;1.90;;;8.00;99.90;;;;;;4952804;24;20157;-95
2023/12/08 18:30:59;;;;;;;15.05;2.65;;;8.00;99.90;;;;;;4976327;23;20644;-95
2023/12/08 18:33:05;;;;;;;8.90;2.03;;;8.00;99.90;;;;;;4952865;23;20156;-95
2023/12/08 18:35:29;;;;;;;13.77;1.85;;;8.00;99.90;;;;;;4952032;24;20550;-96
2023/12/08 18:37:48;;;;;;;;;;;;;;;;;;;;;
2023/12/08 18:40:00;;;;;;;11.85;2.83;;;8.20;99.90;;;;;;4999488;23;20163;-95
2023/12/08 18:42:11;;;;;;;5.80;1.50;;;8.20;99.90;;;;;;4953011;23;20188;-96
2023/12/08 18:44:12;;;;;;;18.10;2.80;;;8.20;99.90;;;;;;4952847;23;20172;-95
2023/12/08 18:49:00;;;;;;;10.05;2.25;;;8.20;99.90;;;;;;4959242;23;20164;-94
2023/12/08 18:51:23;;;;;;;12.18;2.17;;;8.30;99.90;;;;;;4978015;23;20215;-95
2023/12/08 18:53:44;;;;;;;5.68;1.67;;;8.30;99.90;;;;;;4975516;23;20167;-95
2023/12/08 18:55:47;;;;;;;11.93;3.13;;;8.20;99.90;;;;;;4977360;23;20236;-96
2023/12/08 18:57:59;;;;;;;11.70;2.13;;;8.20;99.90;;;;;;4976267;23;20603;-95
2023/12/08 19:00:24;;;;;;;7.07;2.22;;;8.20;99.90;;;;;;4956128;24;20164;-95
2023/12/08 19:02:36;;;;;;;14.10;1.52;;;8.20;99.90;;;;;;4950807;23;20160;-95
2023/12/08 19:04:43;;;;;;;4.25;1.77;;;8.20;99.90;;;;;;4979902;23;20560;-96
2023/12/08 19:07:27;;;;;;;5.55;2.03;;;8.20;99.90;;;;;;4976647;23;20167;-95
2023/12/08 19:09:45;;;;;;;14.50;3.38;;;8.20;99.90;;;;;;4977544;23;20157;-95
2023/12/08 19:12:42;;;;;;;;;;;;;;;;;;;;;
2023/12/08 19:14:56;;;;;;;8.05;2.22;;;8.20;99.90;;;;;;4977664;23;20236;-95
2023/12/08 19:16:57;;;;;;;12.63;2.33;;;8.10;99.90;;;;;;4977227;23;20507;-96
2023/12/08 19:19:11;;;;;;;;;;;;;;;;;;;;;
2023/12/08 19:21:25;;;;;;;5.75;1.88;;;8.10;99.90;;;;;;5001215;23;20163;-96
2023/12/08 19:23:40;;;;;;;7.00;2.08;;;8.10;99.90;;;;;;5001496;23;20156;-95
2023/12/08 19:25:44;;;;;;;10.50;2.22;;;8.20;99.90;;;;;;4952314;23;20184;-95
2023/12/08 19:31:22;;;;;;;;;;;;;;;;;;;;;
2023/12/08 19:33:46;;;;;;;14.90;2.40;;;8.10;99.90;;;;;;5002101;23;20162;-95
2023/12/08 19:36:02;;;;;;;9.85;1.60;;;8.10;99.90;;;;;;4976245;23;20165;-95
2023/12/08 19:38:09;;;;;;;4.32;1.60;;;8.10;99.90;;;;;;4954040;23;20149;-95
2023/12/08 19:40:11;;;;;;;9.73;2.63;;;8.10;99.90;;;;;;4978872;23;20163;-95
2023/12/08 19:42:41;;;;;;;11.73;2.47;;;8.00;99.90;;;;;;4978810;23;20159;-96
2023/12/08 19:45:16;;;;;;;;;;;;;;;;;;;;;
2023/12/08 19:48:02;;;;;;;;;;;;;;;;;;;;;
2023/12/08 19:50:33;;;;;;;17.88;2.58;;;8.10;99.90;;;;;;5003260;23;20212;-95
2023/12/08 19:53:12;;;;;;;20.08;3.42;;;8.10;99.90;;;;;;4980488;23;20148;-96
2023/12/08 19:55:44;;;;;;;12.35;2.97;;;8.20;99.90;;;;;;4956151;23;20193;-95
2023/12/08 19:58:01;;;;;;;7.30;1.98;;;8.20;99.90;;;;;;4979263;23;20184;-95
2023/12/08 20:00:47;;;;;;;10.07;2.17;;;8.10;99.90;;;;;;4984044;23;20168;-96
2023/12/08 20:02:56;;;;;;;9.93;2.03;;;8.10;99.90;;;;;;4960653;23;20260;-95
2023/12/08 20:05:05;;;;;;;11.10;1.65;;;8.00;99.90;;;;;;4956689;23;20176;-94
2023/12/08 20:07:11;;;;;;;10.75;2.33;;;8.00;99.90;;;;;;4978686;23;20198;-94
2023/12/08 20:09:12;;;;;;;3.58;1.70;;;8.00;99.90;;;;;;5002311;23;20151;-94
2023/12/08 20:11:34;;;;;;;12.88;2.25;;;8.00;99.90;;;;;;4981131;23;20531;-95
2023/12/08 20:13:48;;;;;;;9.25;2.28;;;8.00;99.90;;;;;;4979014;23;20152;-95
2023/12/08 20:16:34;;;;;;;10.18;2.22;;;8.00;99.90;;;;;;5014359;23;20170;-94
2023/12/08 20:18:58;;;;;;;22.95;2.78;;;8.00;99.90;;;;;;4977739;23;20164;-95
2023/12/08 20:21:26;;;;;;;9.90;2.00;;;8.00;99.90;;;;;;5005899;23;20204;-96
2023/12/08 20:23:41;;;;;;;11.20;3.63;;;8.10;99.90;;;;;;5001777;23;20166;-95
2023/12/08 20:26:08;;;;;;;4.55;1.77;;;8.10;99.90;;;;;;5006801;23;20154;-94
2023/12/08 20:28:54;;;;;;;;;;;;;;;;;;;;;
2023/12/08 20:34:24;;;;;;;11.73;2.63;;;8.00;99.90;;;;;;4961861;23;20160;-95
2023/12/08 20:37:09;;;;;;;8.85;2.90;;;8.10;99.90;;;;;;4981085;23;20152;-95
2023/12/08 20:39:28;;;;;;;16.17;3.17;;;8.00;99.90;;;;;;5001283;23;20159;-95
2023/12/08 20:42:04;;;;;;;13.35;2.00;;;8.00;99.90;;;;;;5002592;23;20555;-95
2023/12/08 20:44:08;;;;;;;11.65;1.92;;;8.00;99.90;;;;;;4996399;23;20155;-95
2023/12/08 20:46:22;;;;;;;9.55;2.65;;;8.00;99.90;;;;;;4978250;23;20185;-95
2023/12/08 20:48:59;;;;;;;;;;;;;;;;;;;;;
2023/12/08 20:51:04;;;;;;;4.28;1.60;;;8.00;99.90;;;;;;4998088;23;20274;-95
2023/12/08 20:53:47;;;;;;;13.98;1.98;;;8.00;99.90;;;;;;5006596;23;20152;-96
2023/12/08 20:56:23;;;;;;;;;;;;;;;;;;;;;
2023/12/08 20:58:55;;;;;;;10.38;2.95;;;8.10;99.90;;;;;;5003533;23;20688;-96
2023/12/08 21:01:17;;;;;;;8.27;2.25;;;8.20;99.90;;;;;;4982901;23;20198;-95
2023/12/08 21:03:57;;;;;;;5.20;1.52;;;8.30;99.90;;;;;;4982676;23;20152;-96
2023/12/08 21:06:28;;;;;;;5.97;1.70;;;8.30;99.90;;;;;;5029049;23;20162;-95
2023/12/08 21:08:50;;;;;;;;;;;;;;;;;;;;;
2023/12/08 21:10:51;;;;;;;19.08;2.92;;;8.30;99.90;;;;;;5001820;23;20191;-95
2023/12/08 21:13:10;;;;;;;10.00;1.00;;;8.30;99.90;;;;;;5005102;23;20151;-94
2023/12/08 21:15:57;;;;;;;9.80;1.38;;;8.30;99.90;;;;;;4999965;23;20191;-94
2023/12/08 21:18:10;;;;;;;13.75;1.75;;;8.20;99.90;;;;;;4978271;23;20596;-95
2023/12/08 21:20:14;;;;;;;8.82;2.20;;;8.20;99.90;;;;;;4978953;23;20152;-95
2023/12/08 21:22:18;;;;;;;12.68;1.40;;;8.10;99.90;;;;;;4978335;23;20168;-95
2023/12/08 21:24:19;;;;;;;8.80;1.45;;;8.10;99.90;;;;;;4977033;23;20256;-95
2023/12/08 21:26:24;;;;;;;11.27;1.40;;;8.10;99.90;;;;;;5003126;23;20151;-95
2023/12/08 21:28:30;;;;;;;6.22;2.15;;;8.20;99.90;;;;;;4978098;23;20163;-95
2023/12/08 21:30:43;;;;;;;;;;;;;;;;;;;;;
2023/12/08 21:33:07;;;;;;;8.07;1.17;;;8.20;99.90;;;;;;5025747;23;20134;-96
2023/12/08 21:35:26;;;;;;;;;;;;;;;;;;;;;
2023/12/08 21:37:39;;;;;;;15.05;2.30;;;8.10;99.90;;;;;;4999657;23;20184;-94
2023/12/08 21:40:00;;;;;;;7.43;1.90;;;8.10;99.90;;;;;;5008995;23;20163;-95
2023/12/08 21:45:01;;;;;;;6.20;2.28;;;8.00;99.90;;;;;;5030786;23;20262;-95
2023/12/08 21:50:14;;;;;;;8.65;2.00;;;8.10;99.90;;;;;;4995551;23;20743;-96
2023/12/08 21:52:27;;;;;;;15.07;2.13;;;8.10;99.90;;;;;;5018121;23;20678;-95
2023/12/08 21:54:31;;;;;;;11.73;2.92;;;8.20;99.90;;;;;;5001658;23;20175;-95
2023/12/08 21:56:59;;;;;;;10.23;2.83;;;8.10;99.90;;;;;;5005035;23;20231;-96
2023/12/08 21:59:36;;;;;;;;;;;;;;;;;;;;;
2023/12/08 22:02:35;;;;;;;5.95;1.35;;;8.00;99.90;;;;;;5017109;23;20237;-96
2023/12/08 22:05:31;;;;;;;4.20;1.23;;;8.00;99.90;;;;;;4977575;23;20186;-96
2023/12/08 22:08:00;;;;;;;;;;;;;;;;;;;;;
2023/12/08 22:10:29;;;;;;;;;;;;;;;;;;;;;
2023/12/08 22:13:47;;;;;;;;;;;;;;;;;;;;;
2023/12/08 22:16:21;;;;;;;9.95;1.83;;;7.90;99.90;;;;;;4999459;23;20490;-96
2023/12/08 22:18:52;;;;;;;4.95;1.77;;;7.80;99.90;;;;;;5016340;23;20194;-94
2023/12/08 22:20:55;;;;;;;3.15;1.83;;;7.90;99.90;;;;;;5000115;23;20156;-95
2023/12/08 22:23:03;;;;;;;3.60;1.85;;;7.90;99.90;;;;;;4976166;23;20160;-95
2023/12/08 22:25:14;;;;;;;13.77;2.25;;;7.80;99.90;;;;;;4999877;23;20174;-96
2023/12/08 22:27:41;;;;;;;8.68;1.45;;;7.80;99.90;;;;;;4977478;23;20217;-96
2023/12/08 22:29:42;;;;;;;10.75;3.05;;;7.70;99.90;;;;;;4966273;23;20160;-95
2023/12/08 22:32:01;;;;;;;26.85;2.20;;;7.70;99.90;;;;;;5017618;23;20583;-95
2023/12/08 22:34:02;;;;;;;9.48;1.00;;;7.70;99.90;;;;;;4997511;23;20606;-96
2023/12/08 22:36:03;;;;;;;13.57;2.30;;;7.70;99.90;;;;;;4973626;23;20251;-95
2023/12/08 22:38:04;;;;;;;8.52;2.45;;;7.70;99.90;;;;;;4974114;23;20184;-95
2023/12/08 22:40:05;;;;;;;13.77;1.95;;;7.60;99.90;;;;;;4974486;23;20152;-95
2023/12/08 22:42:06;;;;;;;11.63;3.47;;;7.70;99.90;;;;;;4974220;23;20164;-94
2023/12/08 22:44:07;;;;;;;5.72;1.92;;;7.70;99.90;;;;;;4997459;23;20258;-94
2023/12/08 22:46:09;;;;;;;8.18;2.30;;;7.70;99.90;;;;;;4974095;23;20156;-96
2023/12/08 22:48:10;;;;;;;4.50;1.42;;;7.70;99.90;;;;;;4974184;23;20477;-94
2023/12/08 22:50:11;;;;;;;6.60;1.70;;;7.70;99.90;;;;;;4973828;23;20275;-94
2023/12/08 22:52:12;;;;;;;7.63;1.95;;;7.60;99.90;;;;;;4974210;23;20167;-95
2023/12/08 22:54:12;;;;;;;7.75;1.95;;;7.60;99.90;;;;;;4974007;23;20207;-95
2023/12/08 22:56:13;;;;;;;7.75;2.17;;;7.60;99.90;;;;;;4997419;23;20546;-95
2023/12/08 22:58:14;;;;;;;3.92;1.35;;;7.60;99.90;;;;;;4974437;23;20158;-94
2023/12/08 23:00:21;;;;;;;7.72;2.85;;;7.70;99.90;;;;;;4973994;23;20235;-94
2023/12/08 23:02:22;;;;;;;2.42;1.23;;;7.60;99.90;;;;;;4973924;23;20160;-95
2023/12/08 23:04:23;;;;;;;8.30;2.50;;;7.60;99.90;;;;;;4973800;23;20183;-94
2023/12/08 23:06:24;;;;;;;13.23;2.20;;;7.60;99.90;;;;;;4973787;23;20236;-94
2023/12/08 23:08:25;;;;;;;15.18;2.65;;;7.60;99.90;;;;;;4973753;23;20164;-95
2023/12/08 23:10:26;;;;;;;2.72;1.77;;;7.50;99.90;;;;;;4973989;23;20215;-95
2023/12/08 23:12:26;;;;;;;9.02;1.60;;;7.50;99.90;;;;;;4997379;23;20156;-94
2023/12/08 23:14:27;;;;;;;16.60;2.63;;;7.60;99.90;;;;;;4976102;23;20171;-96
2023/12/08 23:16:29;;;;;;;10.70;2.15;;;7.60;99.90;;;;;;4976381;23;20559;-94
2023/12/08 23:18:30;;;;;;;8.98;3.10;;;7.60;99.90;;;;;;5023501;23;20618;-94
2023/12/08 23:20:31;;;;;;;6.70;1.48;;;7.50;99.90;;;;;;4976381;23;20155;-94
2023/12/08 23:22:32;;;;;;;5.50;2.53;;;7.50;99.90;;;;;;4999965;23;20218;-94
2023/12/08 23:24:33;;;;;;;13.75;2.38;;;7.60;99.90;;;;;;4976552;23;20179;-95
2023/12/08 23:26:34;;;;;;;9.93;3.30;;;7.50;99.90;;;;;;4999887;23;20626;-95
2023/12/08 23:28:35;;;;;;;9.38;1.92;;;7.60;99.90;;;;;;4976199;23;20156;-96
2023/12/08 23:30:36;;;;;;;7.05;1.73;;;7.50;99.90;;;;;;4976315;23;20196;-94
2023/12/08 23:32:37;;;;;;;7.82;2.42;;;7.60;99.90;;;;;;4976025;23;20168;-96
2023/12/08 23:34:38;;;;;;;10.10;2.25;;;7.50;99.90;;;;;;4975913;23;20179;-95
2023/12/08 23:36:38;;;;;;;10.68;2.17;;;7.50;99.90;;;;;;5000016;23;20238;-95
2023/12/08 23:38:39;;;;;;;7.10;1.50;;;7.50;99.90;;;;;;4976294;23;20156;-96
2023/12/08 23:40:40;;;;;;;14.25;3.10;;;7.50;99.90;;;;;;4976731;23;20163;-95
2023/12/08 23:42:41;;;;;;;6.28;1.30;;;7.50;99.90;;;;;;4976640;23;20215;-96
2023/12/08 23:44:42;;;;;;;5.50;1.48;;;7.50;99.90;;;;;;4976068;23;20292;-96
2023/12/08 23:46:43;;;;;;;11.95;2.22;;;7.40;99.90;;;;;;4976448;23;20164;-94
2023/12/08 23:48:44;;;;;;;9.73;2.78;;;7.50;99.90;;;;;;4976078;23;20504;-95
2023/12/08 23:50:44;;;;;;;5.85;2.47;;;7.50;99.90;;;;;;4976058;23;20560;-94
2023/12/08 23:52:45;;;;;;;13.13;1.17;;;7.40;99.90;;;;;;4976386;23;20164;-94
2023/12/08 23:54:46;;;;;;;6.68;1.35;;;7.50;99.90;;;;;;4999530;23;20175;-95
2023/12/08 23:56:47;;;;;;;11.02;1.60;;;7.50;99.90;;;;;;4976579;23;20533;-96
2023/12/08 23:58:48;;;;;;;4.75;1.40;;;7.50;99.90;;;;;;4976443;23;20161;-93
